Time;durP1;ratioP1;P1;durP2;ratioP2;P2;SDS_P1;SDS_P2;PMS_P1;PMS_P2;Temp;Humidity;BMP_temperature;BMP_pressure;BME280_temperature;BME280_humidity;BME280_pressure;Samples;Min_cycle;Max_cycle;Signal;HPM_P1;HPM_P2
2022/03/30 00:01:19;;;;;;;75.97;35.40;;;;;;;10.83;80.84;99614.13;8258121;28;20039;-65
2022/03/30 00:05:20;;;;;;;70.90;34.28;;;;;;;10.74;80.62;99620.53;8257821;28;20372;-65
2022/03/30 00:09:21;;;;;;;76.15;34.95;;;;;;;10.71;80.83;99610.06;8257694;28;20042;-65
2022/03/30 00:13:21;;;;;;;72.70;35.85;;;;;;;10.70;80.38;99607.53;8250395;28;20495;-65
2022/03/30 00:17:22;;;;;;;70.82;35.67;;;;;;;10.71;79.43;99595.69;8271780;28;20061;-64
2022/03/30 00:21:22;;;;;;;68.35;33.33;;;;;;;10.65;79.54;99605.31;8263878;28;20088;-64
2022/03/30 00:25:22;;;;;;;71.18;34.28;;;;;;;10.64;80.03;99595.50;8256250;28;21557;-64
2022/03/30 00:29:23;;;;;;;76.32;34.72;;;;;;;10.65;81.43;99588.25;8259640;28;20117;-64
2022/03/30 00:33:24;;;;;;;69.78;34.05;;;;;;;10.55;81.40;99592.94;8256620;28;20054;-64
2022/03/30 00:37:24;;;;;;;71.00;35.10;;;;;;;10.46;82.18;99586.63;8262574;28;20042;-64
2022/03/30 00:41:33;;;;;;;75.38;35.90;;;;;;;10.42;81.41;99577.16;8269999;28;20069;-65
2022/03/30 00:45:34;;;;;;;77.65;35.75;;;;;;;10.38;81.35;99575.81;8256684;28;20070;-65
2022/03/30 00:49:34;;;;;;;74.75;35.15;;;;;;;10.36;81.64;99567.00;8256540;28;20038;-65
2022/03/30 00:53:35;;;;;;;72.53;36.88;;;;;;;10.33;81.48;99572.72;8256313;28;20068;-65
2022/03/30 00:57:37;;;;;;;73.97;35.70;;;;;;;10.37;82.14;99568.69;8256630;28;20514;-65
2022/03/30 01:01:38;;;;;;;82.60;36.08;;;;;;;10.33;82.40;99572.72;8256939;28;20395;-65
2022/03/30 01:05:38;;;;;;;73.28;35.70;;;;;;;10.27;82.64;99562.56;8256333;28;20057;-65
2022/03/30 01:09:38;;;;;;;73.35;35.28;;;;;;;10.27;83.56;99565.28;8257146;28;20495;-64
2022/03/30 01:13:40;;;;;;;73.50;36.25;;;;;;;10.25;86.34;99564.63;8255870;28;20037;-64
2022/03/30 01:17:41;;;;;;;81.40;37.30;;;;;;;10.16;86.57;99560.19;8270738;28;20085;-64
2022/03/30 01:21:43;;;;;;;74.80;36.25;;;;;;;10.13;87.58;99554.25;8245593;28;20038;-64
2022/03/30 01:25:44;;;;;;;78.97;37.55;;;;;;;10.09;86.68;99542.91;8256242;28;20041;-64
2022/03/30 01:34:05;;;;;;;82.15;34.72;;;;;;;10.02;85.95;99531.03;8255170;28;20034;-65
2022/03/30 01:38:05;;;;;;;74.00;34.00;;;;;;;9.89;84.26;99530.63;8256109;28;20066;-65
2022/03/30 01:42:07;;;;;;;76.55;35.08;;;;;;;9.88;85.97;99527.06;8254564;28;20070;-64
2022/03/30 01:46:08;;;;;;;72.05;35.17;;;;;;;9.84;87.44;99520.31;8255891;28;20462;-64
2022/03/30 01:50:10;;;;;;;83.60;36.90;;;;;;;9.80;87.94;99520.78;8254700;28;20061;-64
2022/03/30 01:54:10;;;;;;;77.90;35.83;;;;;;;9.72;88.13;99515.34;8258060;28;20038;-64
2022/03/30 01:58:11;;;;;;;71.57;34.78;;;;;;;9.64;87.43;99509.91;8261567;28;20044;-64
2022/03/30 02:02:12;;;;;;;73.10;35.08;;;;;;;9.68;88.61;99512.13;8269354;28;20518;-64
2022/03/30 02:06:14;;;;;;;79.47;35.50;;;;;;;9.67;88.65;99506.91;8261346;28;20057;-64
2022/03/30 02:10:14;;;;;;;81.07;33.75;;;;;;;9.65;87.53;99511.59;8259925;28;20093;-64
2022/03/30 02:14:15;;;;;;;75.60;35.20;;;;;;;9.58;87.22;99505.16;8261306;28;20125;-64
2022/03/30 02:18:16;;;;;;;71.85;34.60;;;;;;;9.66;88.17;99503.34;8279872;28;20042;-64
2022/03/30 02:22:16;;;;;;;72.25;34.25;;;;;;;9.64;87.99;99499.13;8260699;28;20511;-64
2022/03/30 02:26:17;;;;;;;70.80;32.65;;;;;;;9.62;87.88;99490.31;8261005;28;20042;-65
2022/03/30 02:30:18;;;;;;;73.28;34.70;;;;;;;9.59;87.75;99490.66;8260156;28;20481;-64
2022/03/30 02:34:18;;;;;;;74.90;34.55;;;;;;;9.64;87.31;99491.03;8260607;28;20069;-64
2022/03/30 02:38:19;;;;;;;73.57;34.88;;;;;;;9.63;86.93;99481.22;8259265;28;20034;-64
2022/03/30 02:42:20;;;;;;;70.43;32.83;;;;;;;9.52;86.33;99489.59;8260366;28;20053;-64
2022/03/30 02:46:20;;;;;;;69.22;30.77;;;;;;;9.53;84.88;99485.88;8260227;28;20042;-64
2022/03/30 02:50:20;;;;;;;70.55;33.00;;;;;;;9.52;86.65;99481.50;8256726;28;20475;-64
2022/03/30 02:54:21;;;;;;;69.07;30.80;;;;;;;9.52;85.20;99481.50;8242873;28;20046;-64
2022/03/30 02:58:22;;;;;;;67.40;31.45;;;;;;;9.43;85.20;99468.97;8274285;28;20034;-64
2022/03/30 03:02:23;;;;;;;67.47;31.88;;;;;;;9.41;84.62;99473.66;8259684;28;20037;-64
2022/03/30 03:06:23;;;;;;;72.38;30.98;;;;;;;9.35;85.24;99463.50;8259813;28;20050;-64
2022/03/30 03:10:24;;;;;;;62.35;30.45;;;;;;;9.32;84.38;99466.53;8263119;28;20060;-64
2022/03/30 03:14:24;;;;;;;67.85;29.95;;;;;;;9.31;84.64;99459.44;8258588;28;20088;-64
2022/03/30 03:18:25;;;;;;;63.20;29.53;;;;;;;9.32;85.31;99445.81;8259044;28;20117;-64
2022/03/30 03:22:25;;;;;;;80.18;32.38;;;;;;;9.27;84.51;99458.09;8258687;28;20277;-64
2022/03/30 03:26:25;;;;;;;65.28;29.55;;;;;;;9.35;84.17;99441.94;8258956;28;20043;-64
2022/03/30 03:30:27;;;;;;;74.18;33.28;;;;;;;9.29;84.76;99453.34;8273056;28;20170;-64
2022/03/30 03:34:27;;;;;;;62.38;31.13;;;;;;;9.37;84.75;99453.41;8258078;28;20161;-64
2022/03/30 03:38:28;;;;;;;73.35;33.45;;;;;;;9.21;89.30;99451.44;8256936;28;20065;-64
2022/03/30 03:42:29;;;;;;;66.95;32.13;;;;;;;9.05;88.83;99447.78;8258314;28;20113;-64
2022/03/30 03:46:29;;;;;;;75.75;33.53;;;;;;;9.18;89.71;99453.63;8258195;28;20595;-64
2022/03/30 03:50:30;;;;;;;73.78;33.20;;;;;;;9.26;89.92;99451.81;8272894;28;20583;-64
2022/03/30 03:54:31;;;;;;;66.40;32.00;;;;;;;9.31;88.39;99449.50;8257861;28;20088;-64
2022/03/30 03:58:31;;;;;;;67.85;32.65;;;;;;;9.35;89.08;99455.41;8260569;28;20038;-64
2022/03/30 04:02:32;;;;;;;72.95;33.33;;;;;;;9.25;87.69;99449.28;8256314;28;20042;-64
2022/03/30 04:06:32;;;;;;;70.85;32.40;;;;;;;9.27;88.77;99453.50;8258032;28;20534;-64
2022/03/30 04:10:33;;;;;;;67.40;32.55;;;;;;;9.21;87.21;99453.31;8259907;28;20545;-64
2022/03/30 04:14:34;;;;;;;70.15;32.70;;;;;;;9.21;87.81;99442.53;8257240;28;20040;-64
2022/03/30 04:18:34;;;;;;;70.85;32.95;;;;;;;9.14;88.89;99441.44;8255999;28;20163;-64
2022/03/30 04:22:35;;;;;;;66.85;31.73;;;;;;;9.04;88.46;99430.78;8257416;28;20096;-64
2022/03/30 04:26:36;;;;;;;70.85;32.15;;;;;;;9.04;89.86;99432.63;8257329;28;20547;-64
2022/03/30 04:30:36;;;;;;;72.20;33.13;;;;;;;9.00;88.15;99439.34;8257313;28;20077;-64
2022/03/30 04:34:37;;;;;;;73.05;31.50;;;;;;;8.97;88.64;99429.69;8257227;28;20034;-64
2022/03/30 04:38:37;;;;;;;72.18;32.40;;;;;;;8.94;88.10;99423.78;8256842;28;20046;-64
2022/03/30 04:42:38;;;;;;;71.47;32.95;;;;;;;8.96;88.06;99419.94;8271283;28;20118;-64
2022/03/30 04:46:38;;;;;;;67.32;30.38;;;;;;;8.97;87.52;99418.09;8272602;28;20039;-64
2022/03/30 04:50:38;;;;;;;67.28;33.00;;;;;;;8.98;86.99;99431.41;8263624;28;20037;-64
2022/03/30 04:54:39;;;;;;;70.10;31.90;;;;;;;9.00;87.39;99423.16;8259788;28;20058;-64
2022/03/30 04:58:39;;;;;;;77.07;31.88;;;;;;;9.01;87.21;99422.16;8241758;28;20049;-64
2022/03/30 05:02:40;;;;;;;69.80;31.52;;;;;;;9.00;87.03;99418.59;8257583;28;20455;-64
2022/03/30 05:06:41;;;;;;;68.78;31.77;;;;;;;9.00;87.80;99424.00;8258340;28;20126;-64
2022/03/30 05:10:43;;;;;;;67.65;30.77;;;;;;;8.93;86.34;99425.63;8253805;28;20651;-64
2022/03/30 05:14:44;;;;;;;74.50;31.73;;;;;;;8.92;87.88;99423.94;8253182;28;20038;-64
2022/03/30 05:18:44;;;;;;;68.88;30.95;;;;;;;8.94;85.54;99423.78;8252728;28;20049;-64
2022/03/30 05:22:45;;;;;;;65.63;31.40;;;;;;;8.90;84.74;99427.78;8255246;28;20049;-64
2022/03/30 05:26:45;;;;;;;72.90;31.10;;;;;;;8.86;85.34;99429.09;8256594;28;20046;-64
2022/03/30 05:30:46;;;;;;;73.32;32.33;;;;;;;8.78;86.89;99423.69;8274862;28;20067;-64
2022/03/30 05:34:47;;;;;;;56.35;26.00;;;;;;;9.47;89.65;99421.78;8261008;28;20439;-62
2022/03/30 05:38:48;;;;;;;65.22;30.08;;;;;;;9.01;88.26;99414.91;8258658;28;20085;-63
2022/03/30 05:42:48;;;;;;;70.30;32.63;;;;;;;8.87;88.79;99422.72;8242823;28;20038;-63
2022/03/30 05:46:49;;;;;;;77.40;33.22;;;;;;;8.77;89.29;99422.81;8268432;28;20258;-63
2022/03/30 05:50:52;;;;;;;73.27;31.10;;;;;;;8.70;92.25;99428.97;8252308;28;20414;-63
2022/03/30 05:54:52;;;;;;;67.05;30.65;;;;;;;8.65;92.74;99429.44;8260972;28;20729;-63
2022/03/30 05:58:53;;;;;;;72.05;30.85;;;;;;;8.69;91.79;99430.81;8259526;28;20133;-64
2022/03/30 06:02:53;;;;;;;74.40;32.38;;;;;;;8.62;89.14;99426.19;8256929;28;20058;-64
2022/03/30 06:06:54;;;;;;;69.40;32.05;;;;;;;8.68;88.95;99429.13;8259608;28;20050;-62
2022/03/30 06:10:54;;;;;;;68.93;32.10;;;;;;;8.77;88.22;99428.22;8266587;28;20394;-62
2022/03/30 06:14:55;;;;;;;67.05;31.20;;;;;;;8.74;87.20;99433.06;8260723;28;20042;-65
2022/03/30 06:18:56;;;;;;;82.25;32.95;;;;;;;8.82;87.24;99430.44;8260009;28;20407;-64
2022/03/30 06:22:57;;;;;;;73.30;30.05;;;;;;;8.87;87.57;99433.47;8259987;28;20061;-62
2022/03/30 06:26:58;;;;;;;72.35;31.70;;;;;;;8.86;86.73;99421.88;8260398;28;20121;-64
2022/03/30 06:30:58;;;;;;;81.30;33.00;;;;;;;8.83;86.29;99432.13;8257287;28;20034;-62
2022/03/30 06:34:58;;;;;;;76.88;32.22;;;;;;;8.85;86.52;99435.50;8268304;28;20101;-62
2022/03/30 06:39:00;;;;;;;69.65;31.23;;;;;;;8.85;86.05;99435.50;8258855;28;20042;-62
2022/03/30 06:43:00;;;;;;;66.88;30.75;;;;;;;8.94;87.04;99435.41;8259498;28;20046;-64
2022/03/30 06:47:02;;;;;;;67.88;31.00;;;;;;;9.00;85.21;99442.88;8260110;28;20048;-62
2022/03/30 06:51:03;;;;;;;65.82;31.15;;;;;;;9.24;85.26;99436.81;8259429;28;20038;-62
2022/03/30 06:55:05;;;;;;;66.57;29.15;;;;;;;9.27;84.41;99433.81;8259389;28;20053;-63
2022/03/30 06:59:05;;;;;;;72.78;31.02;;;;;;;9.26;84.92;99440.19;8242143;28;20104;-62
2022/03/30 07:03:06;;;;;;;71.50;30.67;;;;;;;9.31;84.37;99437.88;8258887;28;20125;-62
2022/03/30 07:11:26;;;;;;;69.60;29.25;;;;;;;9.30;85.44;99442.41;8258734;28;20046;-64
2022/03/30 07:15:27;;;;;;;71.30;31.23;;;;;;;9.44;85.74;99438.28;8258876;28;20034;-64
2022/03/30 07:19:27;;;;;;;70.70;30.98;;;;;;;9.46;84.69;99433.59;8258441;28;20089;-63
2022/03/30 07:23:27;;;;;;;70.05;31.88;;;;;;;9.60;84.19;99432.97;8258042;28;20038;-63
2022/03/30 07:27:28;;;;;;;70.82;31.35;;;;;;;9.76;84.62;99444.69;8259766;28;20046;-63
2022/03/30 07:31:28;;;;;;;72.82;30.85;;;;;;;9.77;83.13;99434.75;8257830;28;20463;-63
2022/03/30 07:35:32;;;;;;;69.57;30.45;;;;;;;9.95;82.41;99428.22;8259690;28;20034;-63
2022/03/30 07:39:32;;;;;;;67.73;30.30;;;;;;;9.91;82.17;99420.63;8257628;28;20086;-63
2022/03/30 07:43:33;;;;;;;64.53;30.73;;;;;;;9.83;81.90;99428.69;8258253;28;20039;-63
2022/03/30 07:47:34;;;;;;;68.35;31.13;;;;;;;9.77;82.09;99423.94;8257699;28;20610;-63
2022/03/30 07:51:34;;;;;;;75.60;31.60;;;;;;;9.84;82.00;99424.97;8256475;28;20053;-63
2022/03/30 07:55:35;;;;;;;67.97;29.98;;;;;;;9.92;81.76;99419.63;8257359;28;20043;-63
2022/03/30 07:59:36;;;;;;;69.25;30.13;;;;;;;9.94;81.19;99414.88;8256972;28;20316;-63
2022/03/30 08:03:36;;;;;;;68.70;30.55;;;;;;;10.13;80.67;99420.06;8257776;28;20046;-63
2022/03/30 08:07:37;;;;;;;69.53;29.73;;;;;;;10.35;79.76;99419.44;8256987;28;20415;-63
2022/03/30 08:11:38;;;;;;;74.80;31.80;;;;;;;10.51;79.73;99424.00;8256794;28;20031;-63
2022/03/30 08:15:39;;;;;;;68.35;30.33;;;;;;;10.31;78.01;99415.38;8271852;28;20250;-63
2022/03/30 08:19:40;;;;;;;68.53;28.98;;;;;;;10.46;77.61;99421.81;8255753;28;20034;-63
2022/03/30 08:23:41;;;;;;;58.58;26.48;;;;;;;10.37;75.31;99417.41;8256454;28;20465;-63
2022/03/30 08:27:41;;;;;;;72.75;29.33;;;;;;;10.31;76.21;99423.47;8255040;28;20073;-63
2022/03/30 08:31:42;;;;;;;67.65;29.02;;;;;;;10.93;75.87;99425.56;8254970;28;20033;-63
2022/03/30 08:35:42;;;;;;;57.38;24.60;;;;;;;11.10;73.30;99424.53;8251655;28;20355;-63
2022/03/30 08:39:44;;;;;;;57.10;25.60;;;;;;;11.44;72.56;99422.44;8228585;28;20042;-63
2022/03/30 08:43:45;;;;;;;55.85;24.38;;;;;;;11.76;70.52;99425.09;8224393;28;20045;-63
2022/03/30 08:47:46;;;;;;;62.22;26.77;;;;;;;11.88;70.26;99414.72;8245713;28;20042;-63
2022/03/30 08:51:49;;;;;;;42.80;22.90;;;;;;;12.03;67.32;99406.69;8255999;28;20429;-63
2022/03/30 08:55:50;;;;;;;51.38;24.25;;;;;;;12.19;67.52;99409.31;8256089;28;20402;-63
2022/03/30 09:00:14;;;;;;;51.67;23.45;;;;;;;12.40;66.58;99412.25;8238179;28;20031;-62
2022/03/30 09:04:17;;;;;;;51.45;23.30;;;;;;;12.31;66.89;99406.03;8255083;28;20050;-64
2022/03/30 09:08:25;;;;;;;51.78;23.30;;;;;;;12.22;65.50;99404.41;8264151;28;20050;-64
2022/03/30 09:12:26;;;;;;;50.92;23.60;;;;;;;12.13;65.71;99400.03;8263507;28;20034;-64
2022/03/30 09:16:37;;;;;;;53.97;23.80;;;;;;;12.14;66.17;99400.91;8268105;28;20061;-64
2022/03/30 09:20:40;;;;;;;44.15;21.67;;;;;;;12.12;65.63;99402.94;8266654;28;20121;-64
2022/03/30 09:24:41;;;;;;;49.90;22.23;;;;;;;12.19;64.24;99399.31;8266284;28;20034;-64
2022/03/30 09:28:42;;;;;;;42.90;20.63;;;;;;;12.28;63.45;99391.97;8262032;28;20058;-64
2022/03/30 09:32:45;;;;;;;48.38;21.73;;;;;;;12.72;63.02;99395.75;8248304;28;20041;-64
2022/03/30 09:36:49;;;;;;;41.95;19.23;;;;;;;13.69;59.88;99391.91;8262009;28;20042;-64
2022/03/30 09:40:55;;;;;;;37.03;16.87;;;;;;;15.09;53.92;99376.78;8260822;28;20046;-64
2022/03/30 09:44:55;;;;;;;42.85;17.92;;;;;;;15.96;53.13;99385.34;8263051;28;20054;-65
2022/03/30 09:48:56;;;;;;;38.15;18.45;;;;;;;16.35;51.72;99380.88;8266916;28;20096;-65
2022/03/30 09:53:10;;;;;;;37.92;17.05;;;;;;;17.52;49.21;99375.59;8261716;28;20042;-65
2022/03/30 09:57:14;;;;;;;32.42;16.13;;;;;;;18.05;47.15;99368.06;8268207;28;20052;-65
2022/03/30 10:01:19;;;;;;;32.58;16.17;;;;;;;17.93;47.83;99367.03;8261425;28;20499;-65
2022/03/30 10:05:21;;;;;;;32.85;14.88;;;;;;;17.25;46.87;99373.03;8262820;28;20042;-65
2022/03/30 10:09:22;;;;;;;32.00;15.65;;;;;;;17.14;47.95;99373.69;8262672;28;20046;-65
2022/03/30 10:13:24;;;;;;;29.42;16.67;;;;;;;16.32;49.49;99370.41;8259292;28;20038;-65
2022/03/30 10:17:26;;;;;;;38.83;17.67;;;;;;;16.81;50.34;99370.09;8261530;28;20038;-65
2022/03/30 10:21:54;;;;;;;30.40;16.00;;;;;;;16.31;48.27;99367.88;8259221;28;20388;-65
2022/03/30 10:26:11;;;;;;;27.63;15.93;;;;;;;17.06;48.05;99362.97;8261174;28;20125;-65
2022/03/30 10:30:12;;;;;;;28.70;16.15;;;;;;;17.77;46.70;99362.06;8260243;28;20048;-65
2022/03/30 10:34:27;;;;;;;36.13;17.73;;;;;;;17.70;48.32;99347.56;8260229;28;20048;-65
2022/03/30 10:38:30;;;;;;;35.67;17.63;;;;;;;17.38;51.04;99345.69;8258666;28;20034;-65
2022/03/30 10:42:53;;;;;;;35.30;17.98;;;;;;;17.39;50.68;99344.66;8259632;28;20498;-65
2022/03/30 10:47:17;;;;;;;36.03;17.77;;;;;;;18.44;49.93;99340.53;8260059;28;20038;-65
2022/03/30 10:51:18;;;;;;;28.33;16.10;;;;;;;18.19;48.46;99339.59;8271397;28;20045;-65
2022/03/30 10:59:31;;;;;;;32.63;17.25;;;;;;;18.16;48.12;99323.63;8354843;27;20184;-63
2022/03/30 11:04:17;;;;;;;31.38;16.65;;;;;;;18.07;48.87;99322.19;8338099;28;20049;-63
2022/03/30 11:17:13;;;;;;;34.83;16.05;;;;;;;19.11;46.50;99290.53;8421361;27;20511;-65
2022/03/30 11:21:15;;;;;;;33.03;15.50;;;;;;;19.35;47.44;99293.28;8416104;28;20086;-65
2022/03/30 11:25:23;;;;;;;30.52;13.60;;;;;;;19.18;46.25;99285.81;8414948;28;20036;-65
2022/03/30 11:29:47;;;;;;;25.58;13.38;;;;;;;19.22;47.03;99282.38;8415685;28;20097;-63
2022/03/30 11:34:28;;;;;;;27.52;14.63;;;;;;;18.89;45.76;99281.88;8416862;28;20071;-63
2022/03/30 11:38:39;;;;;;;28.48;15.25;;;;;;;18.54;47.31;99288.88;8415960;28;20527;-63
2022/03/30 11:42:42;;;;;;;30.67;15.27;;;;;;;18.97;47.00;99267.88;8402717;28;20040;-64
2022/03/30 11:46:43;;;;;;;28.08;15.63;;;;;;;19.37;45.58;99274.69;8383525;27;20444;-64
2022/03/30 11:54:57;;;;;;;29.38;14.68;;;;;;;19.52;45.73;99259.78;8322229;27;20401;-63
2022/03/30 11:58:58;;;;;;;27.58;14.52;;;;;;;19.36;46.35;99262.03;8328111;28;20049;-63
2022/03/30 12:03:00;;;;;;;26.38;14.60;;;;;;;19.78;47.22;99252.06;8356747;28;20544;-63
2022/03/30 12:07:00;;;;;;;32.45;16.23;;;;;;;18.48;47.08;99248.72;8353235;28;20045;-64
2022/03/30 12:11:02;;;;;;;29.40;14.68;;;;;;;20.22;45.73;99248.13;8331906;28;20119;-64
2022/03/30 12:15:11;;;;;;;28.52;14.23;;;;;;;20.28;44.31;99252.69;8315991;28;20573;-64
2022/03/30 12:19:16;;;;;;;33.78;15.27;;;;;;;19.21;44.78;99247.84;8329161;28;20232;-64
2022/03/30 12:23:16;;;;;;;27.08;13.88;;;;;;;19.48;45.59;99244.84;8320007;28;20527;-64
2022/03/30 12:27:17;;;;;;;24.15;14.18;;;;;;;19.58;45.51;99236.94;8383842;28;20812;-64
2022/03/30 12:31:17;;;;;;;26.97;13.87;;;;;;;19.55;44.93;99232.75;8381241;28;20044;-64
2022/03/30 12:35:19;;;;;;;24.95;13.18;;;;;;;18.72;45.27;99220.50;8373624;28;20291;-64
2022/03/30 12:39:21;;;;;;;30.00;15.77;;;;;;;17.16;47.99;99229.53;8392912;28;20504;-64
2022/03/30 12:43:25;;;;;;;26.42;14.27;;;;;;;16.21;49.54;99226.44;8397681;28;20040;-64
2022/03/30 12:51:39;;;;;;;27.15;14.40;;;;;;;15.29;51.83;99219.84;8464107;27;20117;-64
2022/03/30 12:55:40;;;;;;;27.85;13.52;;;;;;;14.90;52.30;99208.72;8448346;27;20036;-64
2022/03/30 12:59:41;;;;;;;22.45;12.55;;;;;;;14.57;50.69;99202.22;8458340;27;20024;-64
2022/03/30 13:03:43;;;;;;;22.58;12.95;;;;;;;14.81;51.23;99193.59;8451047;27;20040;-64
2022/03/30 13:07:50;;;;;;;24.55;12.85;;;;;;;14.82;51.55;99195.28;8458019;27;20044;-64
2022/03/30 13:11:56;;;;;;;24.00;11.98;;;;;;;14.45;50.11;99186.66;8447989;27;20089;-64
2022/03/30 13:16:17;;;;;;;21.63;12.48;;;;;;;14.35;50.83;99178.00;8428003;27;20039;-64
2022/03/30 13:20:18;;;;;;;21.98;11.85;;;;;;;14.48;52.44;99173.50;8429023;27;20694;-64
2022/03/30 13:24:24;;;;;;;20.98;11.65;;;;;;;14.34;51.23;99173.59;8438031;27;20741;-64
2022/03/30 13:28:26;;;;;;;22.05;11.68;;;;;;;14.35;51.51;99161.69;8443832;27;20483;-64
2022/03/30 13:32:27;;;;;;;17.75;10.50;;;;;;;14.18;49.76;99157.56;8446952;27;20047;-64
2022/03/30 13:36:27;;;;;;;20.73;9.93;;;;;;;14.13;49.48;99157.28;8442852;27;20032;-64
2022/03/30 13:40:28;;;;;;;23.58;11.10;;;;;;;14.27;48.75;99146.34;8447554;27;20346;-64
2022/03/30 13:44:30;;;;;;;18.20;9.77;;;;;;;14.59;47.84;99144.91;8405839;28;20098;-64
2022/03/30 13:48:30;;;;;;;21.25;10.23;;;;;;;14.60;49.80;99131.13;8427133;27;20496;-64
2022/03/30 13:52:31;;;;;;;23.48;10.95;;;;;;;14.42;50.46;99122.63;8436522;27;20031;-64
2022/03/30 13:56:31;;;;;;;16.73;9.50;;;;;;;14.45;49.57;99126.84;8453808;28;20514;-65
2022/03/30 14:00:32;;;;;;;18.85;9.52;;;;;;;14.52;48.48;99125.81;8425285;27;20055;-65
2022/03/30 14:04:32;;;;;;;22.25;11.07;;;;;;;14.69;49.82;99118.19;8422176;28;20043;-65
2022/03/30 14:08:33;;;;;;;24.02;10.52;;;;;;;14.43;49.51;99116.16;8404754;28;20132;-65
2022/03/30 14:12:34;;;;;;;21.60;10.93;;;;;;;14.42;51.28;99100.88;8412291;28;20054;-65
2022/03/30 14:16:36;;;;;;;21.58;8.98;;;;;;;14.56;47.02;99107.22;8426197;28;20408;-65
2022/03/30 14:20:37;;;;;;;14.40;8.00;;;;;;;14.46;45.62;99102.16;8421245;28;20044;-65
2022/03/30 14:24:38;;;;;;;16.02;8.52;;;;;;;14.37;46.68;99097.94;8427904;28;20555;-65
2022/03/30 14:28:39;;;;;;;18.67;8.65;;;;;;;14.54;47.72;99088.41;8374506;28;20454;-65
2022/03/30 14:32:41;;;;;;;18.17;10.02;;;;;;;14.57;47.93;99085.28;8407099;28;20063;-65
2022/03/30 14:36:41;;;;;;;20.08;11.32;;;;;;;14.61;50.12;99089.25;8418339;28;20096;-65
2022/03/30 14:40:42;;;;;;;21.70;10.75;;;;;;;14.94;49.70;99079.38;8395332;28;20048;-65
2022/03/30 14:44:43;;;;;;;22.30;11.13;;;;;;;15.18;49.39;99081.56;8392321;28;20048;-65
2022/03/30 14:48:43;;;;;;;21.58;11.23;;;;;;;14.63;50.42;99076.31;8406072;28;20046;-65
2022/03/30 14:52:44;;;;;;;26.67;11.88;;;;;;;14.51;51.72;99075.19;8414096;28;20093;-65
2022/03/30 14:56:51;;;;;;;17.10;10.43;;;;;;;14.19;50.22;99075.81;8425485;28;20126;-65
2022/03/30 15:00:51;;;;;;;25.50;11.90;;;;;;;14.32;51.02;99075.94;8434207;28;20488;-65
2022/03/30 15:04:53;;;;;;;18.42;10.32;;;;;;;14.21;50.20;99071.00;8413734;28;20043;-65
2022/03/30 15:08:54;;;;;;;18.77;10.20;;;;;;;14.23;49.35;99060.81;8409881;28;20237;-65
2022/03/30 15:12:55;;;;;;;20.70;9.82;;;;;;;14.25;48.40;99069.63;8392465;28;20040;-65
2022/03/30 15:16:55;;;;;;;16.17;10.27;;;;;;;14.36;50.37;99057.34;8418405;28;20044;-65
2022/03/30 15:20:57;;;;;;;17.83;10.45;;;;;;;14.38;50.97;99056.09;8397696;28;20132;-65
2022/03/30 15:24:58;;;;;;;20.15;10.55;;;;;;;14.26;50.52;99049.53;8395603;28;20039;-65
2022/03/30 15:29:01;;;;;;;24.70;11.82;;;;;;;14.29;51.39;99048.28;8419519;28;20048;-65
2022/03/30 15:33:02;;;;;;;18.63;10.88;;;;;;;14.27;51.52;99037.63;8412051;28;20051;-65
2022/03/30 15:37:04;;;;;;;19.52;10.50;;;;;;;14.09;51.34;99045.41;8410581;28;20065;-65
2022/03/30 15:41:05;;;;;;;19.42;11.32;;;;;;;14.23;51.40;99049.94;8376679;28;20407;-65
2022/03/30 15:45:06;;;;;;;19.60;10.70;;;;;;;13.99;50.92;99039.50;8386328;28;20063;-65
2022/03/30 15:49:07;;;;;;;17.23;10.70;;;;;;;13.94;51.82;99043.84;8395334;28;20051;-64
2022/03/30 15:53:08;;;;;;;19.35;9.80;;;;;;;13.87;51.12;99051.13;8388225;28;20123;-64
2022/03/30 15:57:08;;;;;;;22.73;10.90;;;;;;;13.82;51.55;99043.56;8405514;28;20040;-64
2022/03/30 16:01:09;;;;;;;17.08;10.13;;;;;;;13.84;52.00;99046.91;8407155;28;20294;-64
2022/03/30 16:05:09;;;;;;;18.05;11.10;;;;;;;13.88;52.16;99036.50;8403095;28;20055;-64
2022/03/30 16:09:10;;;;;;;22.63;11.15;;;;;;;13.80;51.84;99040.19;8426329;28;20044;-64
2022/03/30 16:13:10;;;;;;;18.40;11.13;;;;;;;13.85;51.49;99037.72;8402244;28;20040;-63
2022/03/30 16:17:11;;;;;;;16.02;9.75;;;;;;;13.92;51.41;99038.63;8394758;28;20044;-62
2022/03/30 16:21:12;;;;;;;16.27;10.63;;;;;;;13.91;51.65;99039.66;8373247;28;20043;-63
2022/03/30 16:25:12;;;;;;;20.50;10.43;;;;;;;13.72;51.06;99037.59;8405552;28;20051;-63
2022/03/30 16:29:14;;;;;;;17.27;11.00;;;;;;;13.76;52.48;99033.47;8415836;28;20036;-61
2022/03/30 16:33:14;;;;;;;18.55;10.75;;;;;;;13.66;52.64;99038.38;8390502;28;20046;-63
2022/03/30 16:37:14;;;;;;;18.73;11.07;;;;;;;13.54;53.21;99035.38;8399181;28;20559;-63
2022/03/30 16:41:16;;;;;;;18.15;10.60;;;;;;;13.44;53.24;99036.75;8427213;28;20044;-63
2022/03/30 16:45:16;;;;;;;25.30;12.27;;;;;;;13.44;53.92;99034.03;8435109;28;20123;-63
2022/03/30 16:49:17;;;;;;;19.38;10.88;;;;;;;13.30;54.53;99038.47;8412585;28;20075;-63
2022/03/30 16:53:18;;;;;;;22.20;12.15;;;;;;;13.20;54.73;99042.53;8369225;28;20066;-63
2022/03/30 16:57:19;;;;;;;23.25;11.93;;;;;;;13.08;55.32;99039.50;8403252;28;20539;-63
2022/03/30 17:01:19;;;;;;;22.10;11.73;;;;;;;13.07;55.63;99037.00;8392928;28;20459;-63
2022/03/30 17:05:22;;;;;;;22.33;12.43;;;;;;;13.02;55.55;99025.91;8420350;28;20543;-63
2022/03/30 17:10:23;;;;;;;18.27;11.50;;;;;;;12.97;55.86;99039.16;8392093;28;20347;-62
2022/03/30 17:13:42;;;;;;;20.52;11.73;;;;;;;12.95;55.91;99028.50;8383174;28;20653;-62
2022/03/30 17:17:43;;;;;;;22.15;12.32;;;;;;;12.93;55.74;99038.69;8391221;28;20125;-62
2022/03/30 17:21:45;;;;;;;20.02;12.23;;;;;;;12.88;55.93;99037.59;8385610;28;20041;-62
2022/03/30 17:25:46;;;;;;;24.05;12.23;;;;;;;12.82;56.30;99043.78;8369600;28;20555;-62
2022/03/30 17:29:46;;;;;;;21.95;11.52;;;;;;;12.78;56.73;99037.88;8361230;28;20449;-62
2022/03/30 17:33:46;;;;;;;21.30;11.43;;;;;;;12.72;56.65;99043.25;8388470;28;20527;-62
2022/03/30 17:37:47;;;;;;;25.73;11.85;;;;;;;12.63;57.01;99049.81;8372177;28;20143;-63
2022/03/30 17:41:48;;;;;;;20.85;11.18;;;;;;;12.62;57.43;99042.69;8387626;28;20113;-62
2022/03/30 17:45:50;;;;;;;21.08;12.50;;;;;;;12.54;57.57;99050.94;8408414;28;20040;-62
2022/03/30 17:54:11;;;;;;;19.58;11.48;;;;;;;12.42;57.81;99044.31;8383362;28;20037;-62
2022/03/30 17:58:13;;;;;;;25.70;11.77;;;;;;;12.34;58.31;99044.41;8386308;28;20044;-62
2022/03/30 18:02:18;;;;;;;19.60;11.05;;;;;;;12.27;58.58;99040.75;8384339;28;20042;-62
2022/03/30 18:06:19;;;;;;;20.63;11.15;;;;;;;12.27;59.07;99043.47;8382242;28;20509;-62
2022/03/30 18:10:21;;;;;;;21.25;10.70;;;;;;;12.20;59.32;99042.53;8411906;28;20786;-62
2022/03/30 18:14:21;;;;;;;19.63;11.10;;;;;;;12.15;59.29;99050.38;8397479;28;20035;-62
2022/03/30 18:18:23;;;;;;;20.60;10.68;;;;;;;12.15;59.69;99053.09;8411272;28;20127;-62
2022/03/30 18:22:24;;;;;;;21.60;11.00;;;;;;;12.10;59.68;99047.41;8403618;28;20249;-62
2022/03/30 18:26:24;;;;;;;15.23;10.02;;;;;;;12.04;60.59;99058.97;8397539;28;20527;-62
2022/03/30 18:30:26;;;;;;;22.13;10.50;;;;;;;11.92;60.58;99050.44;8368853;28;20060;-62
2022/03/30 18:34:26;;;;;;;22.23;10.15;;;;;;;11.82;61.18;99050.72;8383283;28;20071;-62
2022/03/30 18:38:27;;;;;;;22.23;9.73;;;;;;;11.73;61.64;99049.13;8394107;28;20039;-62
2022/03/30 18:42:29;;;;;;;20.15;10.07;;;;;;;11.70;62.20;99052.19;8378598;28;20056;-62
2022/03/30 18:46:30;;;;;;;19.60;9.48;;;;;;;11.66;62.29;99059.03;8392355;28;20131;-62
2022/03/30 18:50:30;;;;;;;15.70;9.25;;;;;;;11.58;62.71;99059.03;8384921;28;20051;-62
2022/03/30 18:54:31;;;;;;;18.90;9.30;;;;;;;11.56;62.55;99062.97;8396492;28;20032;-62
2022/03/30 18:58:33;;;;;;;14.82;9.18;;;;;;;11.51;62.69;99068.94;8386769;28;20086;-62
2022/03/30 19:02:34;;;;;;;20.70;9.50;;;;;;;11.48;62.89;99058.47;8382145;28;20040;-62
2022/03/30 19:06:34;;;;;;;22.17;10.18;;;;;;;11.42;63.33;99063.75;8413519;28;20101;-62
2022/03/30 19:10:35;;;;;;;19.63;9.68;;;;;;;11.40;63.71;99063.94;8380469;28;20082;-62